sensor_id;sensor_type;location;lat;lon;timestamp;pressure;altitude;pressure_sealevel;temperature;humidity
21520;BME280;10921;53.614;9.882;2023-08-06T00:00:28;100574.16;;;17.93;86.10
21520;BME280;10921;53.614;9.882;2023-08-06T00:02:55;100570.16;;;17.89;86.26
21520;BME280;10921;53.614;9.882;2023-08-06T00:05:22;100562.41;;;17.80;86.95
21520;BME280;10921;53.614;9.882;2023-08-06T00:07:48;100536.53;;;17.64;87.47
21520;BME280;10921;53.614;9.882;2023-08-06T00:10:16;100547.00;;;17.74;87.45
21520;BME280;10921;53.614;9.882;2023-08-06T00:12:43;100531.88;;;17.58;87.77
21520;BME280;10921;53.614;9.882;2023-08-06T00:15:11;100544.44;;;17.66;88.35
21520;BME280;10921;53.614;9.882;2023-08-06T00:17:38;100512.06;;;17.44;88.59
21520;BME280;10921;53.614;9.882;2023-08-06T00:20:05;100533.97;;;17.56;88.95
21520;BME280;10921;53.614;9.882;2023-08-06T00:22:37;100547.22;;;17.57;90.03
21520;BME280;10921;53.614;9.882;2023-08-06T00:25:05;100502.78;;;17.26;89.55
21520;BME280;10921;53.614;9.882;2023-08-06T00:27:32;100546.34;;;17.50;90.18
21520;BME280;10921;53.614;9.882;2023-08-06T00:30:01;100500.50;;;17.29;89.73
21520;BME280;10921;53.614;9.882;2023-08-06T00:32:28;100517.78;;;17.35;90.18
21520;BME280;10921;53.614;9.882;2023-08-06T00:34:55;100536.78;;;17.48;90.58
21520;BME280;10921;53.614;9.882;2023-08-06T00:37:22;100538.84;;;17.46;90.36
21520;BME280;10921;53.614;9.882;2023-08-06T00:39:49;100538.84;;;17.46;91.00
21520;BME280;10921;53.614;9.882;2023-08-06T00:42:15;100529.06;;;17.45;91.29
21520;BME280;10921;53.614;9.882;2023-08-06T00:44:47;100524.28;;;17.40;91.48
21520;BME280;10921;53.614;9.882;2023-08-06T00:47:13;100527.41;;;17.44;91.61
21520;BME280;10921;53.614;9.882;2023-08-06T00:49:40;100506.31;;;17.26;92.33
21520;BME280;10921;53.614;9.882;2023-08-06T00:52:07;100529.25;;;17.43;92.62
21520;BME280;10921;53.614;9.882;2023-08-06T00:54:35;100519.31;;;17.44;93.02
21520;BME280;10921;53.614;9.882;2023-08-06T00:57:03;100524.72;;;17.44;93.21
21520;BME280;10921;53.614;9.882;2023-08-06T00:59:30;100477.59;;;17.18;93.23
21520;BME280;10921;53.614;9.882;2023-08-06T01:01:58;100517.25;;;17.46;93.73
21520;BME280;10921;53.614;9.882;2023-08-06T01:04:25;100507.69;;;17.43;93.82
21520;BME280;10921;53.614;9.882;2023-08-06T01:10:09;100499.47;;;17.51;94.72
21520;BME280;10921;53.614;9.882;2023-08-06T01:12:50;100476.94;;;17.38;94.48
21520;BME280;10921;53.614;9.882;2023-08-06T01:15:22;100491.75;;;17.48;94.28
21520;BME280;10921;53.614;9.882;2023-08-06T01:17:51;100470.28;;;17.34;94.01
21520;BME280;10921;53.614;9.882;2023-08-06T01:20:18;100498.19;;;17.47;93.84
21520;BME280;10921;53.614;9.882;2023-08-06T01:22:45;100485.91;;;17.45;94.20
21520;BME280;10921;53.614;9.882;2023-08-06T01:25:15;100490.53;;;17.51;94.53
21520;BME280;10921;53.614;9.882;2023-08-06T01:27:49;100484.69;;;17.47;94.68
21520;BME280;10921;53.614;9.882;2023-08-06T01:30:29;100484.13;;;17.52;94.79
21520;BME280;10921;53.614;9.882;2023-08-06T01:33:02;100478.72;;;17.52;94.62
21520;BME280;10921;53.614;9.882;2023-08-06T01:35:31;100429.34;;;17.23;93.97
21520;BME280;10921;53.614;9.882;2023-08-06T01:38:00;100480.78;;;17.50;93.98
21520;BME280;10921;53.614;9.882;2023-08-06T01:40:27;100475.38;;;17.50;94.18
21520;BME280;10921;53.614;9.882;2023-08-06T01:42:54;100458.31;;;17.43;94.21
21520;BME280;10921;53.614;9.882;2023-08-06T01:45:21;100437.28;;;17.32;94.15
21520;BME280;10921;53.614;9.882;2023-08-06T01:47:48;100452.91;;;17.43;94.42
21520;BME280;10921;53.614;9.882;2023-08-06T01:50:14;100442.09;;;17.36;94.42
21520;BME280;10921;53.614;9.882;2023-08-06T01:52:41;100463.97;;;17.48;94.50
21520;BME280;10921;53.614;9.882;2023-08-06T01:55:07;100457.72;;;17.47;94.55
21520;BME280;10921;53.614;9.882;2023-08-06T01:57:34;100446.09;;;17.47;94.63
21520;BME280;10921;53.614;9.882;2023-08-06T02:00:00;100446.94;;;17.47;95.24
21520;BME280;10921;53.614;9.882;2023-08-06T02:02:27;100426.28;;;17.33;94.68
21520;BME280;10921;53.614;9.882;2023-08-06T02:04:53;100444.25;;;17.47;94.79
21520;BME280;10921;53.614;9.882;2023-08-06T02:07:20;100428.03;;;17.41;95.00
21520;BME280;10921;53.614;9.882;2023-08-06T02:09:46;100418.66;;;17.37;94.98
21520;BME280;10921;53.614;9.882;2023-08-06T02:12:13;100439.88;;;17.46;95.26
21520;BME280;10921;53.614;9.882;2023-08-06T02:14:39;100436.34;;;17.46;95.21
21520;BME280;10921;53.614;9.882;2023-08-06T02:17:06;100435.03;;;17.35;94.98
21520;BME280;10921;53.614;9.882;2023-08-06T02:19:32;100430.81;;;17.26;95.13
21520;BME280;10921;53.614;9.882;2023-08-06T02:21:59;100449.19;;;17.44;95.25
21520;BME280;10921;53.614;9.882;2023-08-06T02:24:25;100440.44;;;17.42;95.37
21520;BME280;10921;53.614;9.882;2023-08-06T02:26:52;100440.03;;;17.38;95.03
21520;BME280;10921;53.614;9.882;2023-08-06T02:29:22;100427.97;;;17.34;95.27
21520;BME280;10921;53.614;9.882;2023-08-06T02:31:48;100426.94;;;17.35;95.18
21520;BME280;10921;53.614;9.882;2023-08-06T02:34:15;100435.47;;;17.39;95.51
21520;BME280;10921;53.614;9.882;2023-08-06T02:36:41;100422.38;;;17.36;95.56
21520;BME280;10921;53.614;9.882;2023-08-06T02:39:08;100428.59;;;17.36;95.58
21520;BME280;10921;53.614;9.882;2023-08-06T02:41:35;100389.84;;;17.16;95.99
21520;BME280;10921;53.614;9.882;2023-08-06T02:44:01;100374.66;;;17.08;96.04
21520;BME280;10921;53.614;9.882;2023-08-06T02:46:29;100420.69;;;17.35;96.23
21520;BME280;10921;53.614;9.882;2023-08-06T02:48:55;100374.47;;;17.10;96.41
21520;BME280;10921;53.614;9.882;2023-08-06T02:51:22;100409.28;;;17.33;96.15
21520;BME280;10921;53.614;9.882;2023-08-06T02:53:48;100404.91;;;17.32;96.27
21520;BME280;10921;53.614;9.882;2023-08-06T02:56:15;100403.25;;;17.31;96.22
21520;BME280;10921;53.614;9.882;2023-08-06T02:58:42;100399.91;;;17.29;96.45
21520;BME280;10921;53.614;9.882;2023-08-06T03:01:08;100394.69;;;17.27;96.52
21520;BME280;10921;53.614;9.882;2023-08-06T03:03:35;100392.66;;;17.29;96.48
21520;BME280;10921;53.614;9.882;2023-08-06T03:06:01;100394.50;;;17.29;96.65
21520;BME280;10921;53.614;9.882;2023-08-06T03:08:28;100394.50;;;17.29;96.71
21520;BME280;10921;53.614;9.882;2023-08-06T03:10:55;100384.72;;;17.21;96.64
21520;BME280;10921;53.614;9.882;2023-08-06T03:13:21;100398.22;;;17.28;96.83
21520;BME280;10921;53.614;9.882;2023-08-06T03:15:55;100395.75;;;17.26;97.28
21520;BME280;10921;53.614;9.882;2023-08-06T03:18:22;100378.88;;;17.17;96.71
21520;BME280;10921;53.614;9.882;2023-08-06T03:20:49;100372.00;;;17.15;96.94
21520;BME280;10921;53.614;9.882;2023-08-06T03:23:15;100396.38;;;17.28;96.88
21520;BME280;10921;53.614;9.882;2023-08-06T03:25:42;100357.22;;;17.04;96.79
21520;BME280;10921;53.614;9.882;2023-08-06T03:28:09;100349.31;;;17.03;96.71
21520;BME280;10921;53.614;9.882;2023-08-06T03:30:35;100399.25;;;17.27;96.84
21520;BME280;10921;53.614;9.882;2023-08-06T03:33:05;100369.91;;;17.10;97.28
21520;BME280;10921;53.614;9.882;2023-08-06T03:35:31;100387.44;;;17.28;96.91
21520;BME280;10921;53.614;9.882;2023-08-06T03:37:58;100380.38;;;17.27;97.04
21520;BME280;10921;53.614;9.882;2023-08-06T03:40:24;100378.94;;;17.24;97.20
21520;BME280;10921;53.614;9.882;2023-08-06T03:42:51;100372.28;;;17.27;97.21
21520;BME280;10921;53.614;9.882;2023-08-06T03:45:18;100360.84;;;17.18;97.29
21520;BME280;10921;53.614;9.882;2023-08-06T03:47:44;100384.13;;;17.26;96.94
21520;BME280;10921;53.614;9.882;2023-08-06T03:50:11;100383.69;;;17.22;97.43
21520;BME280;10921;53.614;9.882;2023-08-06T03:52:37;100376.88;;;17.26;97.33
21520;BME280;10921;53.614;9.882;2023-08-06T03:55:04;100376.06;;;17.26;97.41
21520;BME280;10921;53.614;9.882;2023-08-06T03:57:31;100374.38;;;17.25;97.02
21520;BME280;10921;53.614;9.882;2023-08-06T03:59:57;100341.69;;;17.06;97.29
21520;BME280;10921;53.614;9.882;2023-08-06T04:02:24;100371.50;;;17.26;97.36
21520;BME280;10921;53.614;9.882;2023-08-06T04:04:50;100366.91;;;17.27;97.49
21520;BME280;10921;53.614;9.882;2023-08-06T04:07:19;100353.19;;;17.21;97.75
21520;BME280;10921;53.614;9.882;2023-08-06T04:09:58;100360.47;;;17.28;98.87
21520;BME280;10921;53.614;9.882;2023-08-06T04:12:25;100368.56;;;17.28;97.46
21520;BME280;10921;53.614;9.882;2023-08-06T04:14:53;100356.94;;;17.27;97.63
21520;BME280;10921;53.614;9.882;2023-08-06T04:17:20;100367.53;;;17.29;97.71
21520;BME280;10921;53.614;9.882;2023-08-06T04:19:49;100364.00;;;17.28;97.83
21520;BME280;10921;53.614;9.882;2023-08-06T04:22:16;100338.19;;;17.12;97.85
21520;BME280;10921;53.614;9.882;2023-08-06T04:24:43;100362.16;;;17.29;97.63
21520;BME280;10921;53.614;9.882;2023-08-06T04:27:11;100361.97;;;17.30;98.09
21520;BME280;10921;53.614;9.882;2023-08-06T04:29:38;100363.19;;;17.28;97.79
21520;BME280;10921;53.614;9.882;2023-08-06T04:32:08;100360.47;;;17.28;97.77
21520;BME280;10921;53.614;9.882;2023-08-06T04:34:36;100367.34;;;17.30;97.85
21520;BME280;10921;53.614;9.882;2023-08-06T04:37:03;100367.34;;;17.30;97.80
21520;BME280;10921;53.614;9.882;2023-08-06T04:39:30;100372.94;;;17.29;97.29
21520;BME280;10921;53.614;9.882;2023-08-06T04:41:57;100359.22;;;17.23;97.31
21520;BME280;10921;53.614;9.882;2023-08-06T04:44:24;100370.88;;;17.31;96.87
21520;BME280;10921;53.614;9.882;2023-08-06T04:46:51;100356.72;;;17.22;96.90
21520;BME280;10921;53.614;9.882;2023-08-06T04:49:19;100375.63;;;17.29;96.66
21520;BME280;10921;53.614;9.882;2023-08-06T04:51:46;100324.41;;;17.01;96.56
21520;BME280;10921;53.614;9.882;2023-08-06T04:54:13;100359.63;;;17.20;96.73
21520;BME280;10921;53.614;9.882;2023-08-06T04:56:39;100369.19;;;17.23;96.48
21520;BME280;10921;53.614;9.882;2023-08-06T04:59:06;100367.50;;;17.22;96.20
21520;BME280;10921;53.614;9.882;2023-08-06T05:01:32;100361.03;;;17.16;96.25
21520;BME280;10921;53.614;9.882;2023-08-06T05:03:59;100372.06;;;17.21;96.63
21520;BME280;10921;53.614;9.882;2023-08-06T05:06:26;100377.06;;;17.25;96.69
21520;BME280;10921;53.614;9.882;2023-08-06T05:08:52;100378.94;;;17.24;97.10
21520;BME280;10921;53.614;9.882;2023-08-06T05:11:19;100318.72;;;16.89;96.71
21520;BME280;10921;53.614;9.882;2023-08-06T05:13:45;100353.53;;;17.12;96.94
21520;BME280;10921;53.614;9.882;2023-08-06T05:16:12;100371.50;;;17.26;96.67
21520;BME280;10921;53.614;9.882;2023-08-06T05:18:38;100382.28;;;17.26;96.58
21520;BME280;10921;53.614;9.882;2023-08-06T05:21:05;100372.91;;;17.22;96.70
21520;BME280;10921;53.614;9.882;2023-08-06T05:23:32;100342.72;;;17.05;97.05
21520;BME280;10921;53.614;9.882;2023-08-06T05:25:58;100383.53;;;17.30;97.02
21520;BME280;10921;53.614;9.882;2023-08-06T05:28:25;100386.03;;;17.32;97.23
21520;BME280;10921;53.614;9.882;2023-08-06T05:30:51;100379.41;;;17.34;97.42
21520;BME280;10921;53.614;9.882;2023-08-06T05:33:18;100374.84;;;17.35;97.55
21520;BME280;10921;53.614;9.882;2023-08-06T05:35:45;100376.13;;;17.39;97.82
21520;BME280;10921;53.614;9.882;2023-08-06T05:38:11;100367.63;;;17.42;97.92
21520;BME280;10921;53.614;9.882;2023-08-06T05:40:38;100374.31;;;17.46;98.01
21520;BME280;10921;53.614;9.882;2023-08-06T05:43:04;100367.03;;;17.46;97.94
21520;BME280;10921;53.614;9.882;2023-08-06T05:45:31;100378.09;;;17.51;97.83
21520;BME280;10921;53.614;9.882;2023-08-06T05:47:57;100359.66;;;17.55;97.86
21520;BME280;10921;53.614;9.882;2023-08-06T05:50:25;100358.41;;;17.57;97.63
21520;BME280;10921;53.614;9.882;2023-08-06T05:52:51;100358.84;;;17.61;97.88
21520;BME280;10921;53.614;9.882;2023-08-06T05:55:19;100355.38;;;17.67;97.74
21520;BME280;10921;53.614;9.882;2023-08-06T05:57:46;100355.59;;;17.72;98.18
21520;BME280;10921;53.614;9.882;2023-08-06T06:00:13;100360.59;;;17.75;97.78
21520;BME280;10921;53.614;9.882;2023-08-06T06:02:39;100343.56;;;17.75;96.96
21520;BME280;10921;53.614;9.882;2023-08-06T06:05:07;100352.16;;;17.85;97.16
21520;BME280;10921;53.614;9.882;2023-08-06T06:07:33;100327.19;;;17.70;96.63
21520;BME280;10921;53.614;9.882;2023-08-06T06:10:00;100354.88;;;17.91;96.98
21520;BME280;10921;53.614;9.882;2023-08-06T06:12:27;100322.63;;;17.70;95.38
21520;BME280;10921;53.614;9.882;2023-08-06T06:14:53;100357.81;;;17.97;95.42
21520;BME280;10921;53.614;9.882;2023-08-06T06:17:20;100359.88;;;17.95;95.85
21520;BME280;10921;53.614;9.882;2023-08-06T06:19:46;100356.38;;;18.01;95.70
21520;BME280;10921;53.614;9.882;2023-08-06T06:22:13;100365.09;;;18.03;95.82
21520;BME280;10921;53.614;9.882;2023-08-06T06:24:40;100347.84;;;17.97;95.68
21520;BME280;10921;53.614;9.882;2023-08-06T06:27:06;100314.97;;;17.80;95.19
21520;BME280;10921;53.614;9.882;2023-08-06T06:29:33;100355.16;;;18.10;95.59
21520;BME280;10921;53.614;9.882;2023-08-06T06:31:59;100340.59;;;17.98;95.50
21520;BME280;10921;53.614;9.882;2023-08-06T06:34:26;100352.47;;;18.10;95.23
21520;BME280;10921;53.614;9.882;2023-08-06T06:36:53;100354.75;;;18.13;95.24
21520;BME280;10921;53.614;9.882;2023-08-06T06:39:20;100342.88;;;18.07;94.72
21520;BME280;10921;53.614;9.882;2023-08-06T06:41:47;100351.22;;;18.19;94.57
21520;BME280;10921;53.614;9.882;2023-08-06T06:44:14;100334.16;;;18.05;93.73
21520;BME280;10921;53.614;9.882;2023-08-06T06:46:41;100364.34;;;18.22;94.08
21520;BME280;10921;53.614;9.882;2023-08-06T06:49:08;100353.31;;;18.23;94.08
21520;BME280;10921;53.614;9.882;2023-08-06T06:51:34;100342.72;;;18.22;94.62
21520;BME280;10921;53.614;9.882;2023-08-06T06:54:01;100348.38;;;18.27;94.10
21520;BME280;10921;53.614;9.882;2023-08-06T06:56:27;100349.00;;;18.29;93.42
21520;BME280;10921;53.614;9.882;2023-08-06T06:58:54;100354.59;;;18.34;93.29
21520;BME280;10921;53.614;9.882;2023-08-06T07:01:20;100350.25;;;18.40;95.54
21520;BME280;10921;53.614;9.882;2023-08-06T07:03:47;100342.97;;;18.34;94.76
21520;BME280;10921;53.614;9.882;2023-08-06T07:06:13;100343.38;;;18.37;94.96
21520;BME280;10921;53.614;9.882;2023-08-06T07:08:41;100351.72;;;18.49;95.02
21520;BME280;10921;53.614;9.882;2023-08-06T07:11:08;100352.34;;;18.51;93.17
21520;BME280;10921;53.614;9.882;2023-08-06T07:13:35;100342.59;;;18.50;93.86
21520;BME280;10921;53.614;9.882;2023-08-06T07:16:01;100346.81;;;18.59;94.01
21520;BME280;10921;53.614;9.882;2023-08-06T07:18:28;100356.16;;;18.63;93.85
21520;BME280;10921;53.614;9.882;2023-08-06T07:20:55;100349.94;;;18.69;94.81
21520;BME280;10921;53.614;9.882;2023-08-06T07:23:23;100356.19;;;18.76;94.71
21520;BME280;10921;53.614;9.882;2023-08-06T07:25:51;100358.88;;;18.83;93.68
21520;BME280;10921;53.614;9.882;2023-08-06T07:28:18;100353.50;;;18.89;92.78
21520;BME280;10921;53.614;9.882;2023-08-06T07:30:45;100354.53;;;19.02;95.44
21520;BME280;10921;53.614;9.882;2023-08-06T07:33:12;100344.97;;;19.06;92.28
21520;BME280;10921;53.614;9.882;2023-08-06T07:35:38;100311.91;;;18.90;93.19
21520;BME280;10921;53.614;9.882;2023-08-06T07:38:05;100317.91;;;19.06;91.78
21520;BME280;10921;53.614;9.882;2023-08-06T07:40:35;100358.63;;;19.44;91.83
21520;BME280;10921;53.614;9.882;2023-08-06T07:43:02;100357.00;;;19.49;92.00
21520;BME280;10921;53.614;9.882;2023-08-06T07:45:32;100346.13;;;19.62;91.05
21520;BME280;10921;53.614;9.882;2023-08-06T07:47:59;100364.63;;;19.79;89.23
21520;BME280;10921;53.614;9.882;2023-08-06T07:50:25;100357.09;;;19.87;88.65
21520;BME280;10921;53.614;9.882;2023-08-06T07:52:52;100370.56;;;20.07;86.47
21520;BME280;10921;53.614;9.882;2023-08-06T07:55:18;100373.63;;;20.24;86.95
21520;BME280;10921;53.614;9.882;2023-08-06T07:57:45;100344.66;;;20.18;84.46
21520;BME280;10921;53.614;9.882;2023-08-06T08:00:11;100358.28;;;20.49;82.81
21520;BME280;10921;53.614;9.882;2023-08-06T08:02:38;100360.69;;;20.64;82.44
21520;BME280;10921;53.614;9.882;2023-08-06T08:05:05;100355.63;;;20.74;78.79
21520;BME280;10921;53.614;9.882;2023-08-06T08:07:34;100361.38;;;20.84;77.64
21520;BME280;10921;53.614;9.882;2023-08-06T08:10:00;100358.56;;;20.97;81.29
21520;BME280;10921;53.614;9.882;2023-08-06T08:12:27;100355.59;;;21.05;82.56
21520;BME280;10921;53.614;9.882;2023-08-06T08:14:53;100354.53;;;21.06;78.60
21520;BME280;10921;53.614;9.882;2023-08-06T08:17:20;100355.69;;;21.17;77.77
21520;BME280;10921;53.614;9.882;2023-08-06T08:19:46;100350.84;;;21.26;78.25
21520;BME280;10921;53.614;9.882;2023-08-06T08:22:13;100349.72;;;21.33;78.01
21520;BME280;10921;53.614;9.882;2023-08-06T08:24:39;100333.06;;;21.30;76.05
21520;BME280;10921;53.614;9.882;2023-08-06T08:27:06;100321.16;;;21.31;77.48
21520;BME280;10921;53.614;9.882;2023-08-06T08:29:33;100316.78;;;21.30;76.66
21520;BME280;10921;53.614;9.882;2023-08-06T08:31:59;100306.97;;;21.29;75.49
21520;BME280;10921;53.614;9.882;2023-08-06T08:34:26;100348.63;;;21.59;75.84
21520;BME280;10921;53.614;9.882;2023-08-06T08:36:52;100351.63;;;21.69;74.28
21520;BME280;10921;53.614;9.882;2023-08-06T08:39:19;100344.25;;;21.76;73.82
21520;BME280;10921;53.614;9.882;2023-08-06T08:41:45;100321.84;;;21.63;72.70
21520;BME280;10921;53.614;9.882;2023-08-06T08:44:12;100337.69;;;21.66;72.31
21520;BME280;10921;53.614;9.882;2023-08-06T08:46:41;100341.41;;;21.53;71.63
21520;BME280;10921;53.614;9.882;2023-08-06T08:49:10;100307.63;;;21.24;71.55
21520;BME280;10921;53.614;9.882;2023-08-06T08:51:40;100341.06;;;21.43;73.35
21520;BME280;10921;53.614;9.882;2023-08-06T08:54:07;100325.59;;;21.44;74.08
21520;BME280;10921;53.614;9.882;2023-08-06T08:56:35;100339.66;;;21.59;74.38
21520;BME280;10921;53.614;9.882;2023-08-06T08:59:01;100330.84;;;21.63;74.21
21520;BME280;10921;53.614;9.882;2023-08-06T09:01:28;100330.50;;;21.71;73.49
21520;BME280;10921;53.614;9.882;2023-08-06T09:03:56;100312.81;;;21.69;73.71
21520;BME280;10921;53.614;9.882;2023-08-06T09:06:25;100334.22;;;21.95;73.23
21520;BME280;10921;53.614;9.882;2023-08-06T09:09:06;100326.97;;;22.07;72.73
21520;BME280;10921;53.614;9.882;2023-08-06T09:11:38;100331.94;;;22.10;70.87
21520;BME280;10921;53.614;9.882;2023-08-06T09:14:07;100334.00;;;22.15;71.86
21520;BME280;10921;53.614;9.882;2023-08-06T09:16:35;100332.56;;;22.13;69.78
21520;BME280;10921;53.614;9.882;2023-08-06T09:19:09;100326.53;;;22.10;70.48
21520;BME280;10921;53.614;9.882;2023-08-06T09:21:39;100342.59;;;22.12;70.29
21520;BME280;10921;53.614;9.882;2023-08-06T09:24:12;100341.06;;;21.98;70.89
21520;BME280;10921;53.614;9.882;2023-08-06T09:26:40;100335.78;;;21.85;72.02
21520;BME280;10921;53.614;9.882;2023-08-06T09:32:46;100340.88;;;21.81;73.97
21520;BME280;10921;53.614;9.882;2023-08-06T09:35:17;100278.25;;;21.39;72.13
21520;BME280;10921;53.614;9.882;2023-08-06T09:37:44;100338.88;;;21.70;71.18
21520;BME280;10921;53.614;9.882;2023-08-06T09:40:31;100344.47;;;21.75;72.14
21520;BME280;10921;53.614;9.882;2023-08-06T09:42:59;100343.72;;;21.68;72.29
21520;BME280;10921;53.614;9.882;2023-08-06T09:45:37;100342.06;;;21.67;71.52
21520;BME280;10921;53.614;9.882;2023-08-06T09:48:08;100343.34;;;21.64;72.26
21520;BME280;10921;53.614;9.882;2023-08-06T09:50:37;100345.22;;;21.64;73.85
21520;BME280;10921;53.614;9.882;2023-08-06T09:53:05;100293.41;;;21.29;73.41
21520;BME280;10921;53.614;9.882;2023-08-06T09:55:33;100351.28;;;21.66;72.48
21520;BME280;10921;53.614;9.882;2023-08-06T09:58:00;100299.38;;;21.37;71.65
21520;BME280;10921;53.614;9.882;2023-08-06T10:00:27;100344.84;;;21.79;71.98
21520;BME280;10921;53.614;9.882;2023-08-06T10:02:59;100344.75;;;21.85;72.99
21520;BME280;10921;53.614;9.882;2023-08-06T10:05:27;100350.97;;;21.92;70.16
21520;BME280;10921;53.614;9.882;2023-08-06T10:07:55;100342.88;;;21.86;70.55
21520;BME280;10921;53.614;9.882;2023-08-06T10:10:22;100350.19;;;21.85;71.12
21520;BME280;10921;53.614;9.882;2023-08-06T10:12:52;100342.53;;;21.82;71.54
21520;BME280;10921;53.614;9.882;2023-08-06T10:15:24;100342.66;;;21.87;71.58
21520;BME280;10921;53.614;9.882;2023-08-06T10:17:54;100334.88;;;21.91;70.42
21520;BME280;10921;53.614;9.882;2023-08-06T10:20:22;100332.72;;;21.81;68.49
21520;BME280;10921;53.614;9.882;2023-08-06T10:23:09;100336.16;;;21.88;70.16
21520;BME280;10921;53.614;9.882;2023-08-06T10:25:40;100309.88;;;21.52;70.02
21520;BME280;10921;53.614;9.882;2023-08-06T10:28:10;100336.78;;;21.54;70.65
21520;BME280;10921;53.614;9.882;2023-08-06T10:30:46;100335.72;;;21.55;73.98
21520;BME280;10921;53.614;9.882;2023-08-06T10:33:13;100324.72;;;21.50;71.81
21520;BME280;10921;53.614;9.882;2023-08-06T10:35:45;100302.31;;;21.54;71.89
21520;BME280;10921;53.614;9.882;2023-08-06T10:38:21;100330.00;;;21.63;71.92
21520;BME280;10921;53.614;9.882;2023-08-06T10:40:52;100318.91;;;21.64;70.92
21520;BME280;10921;53.614;9.882;2023-08-06T10:45:55;100289.72;;;21.41;71.58
21520;BME280;10921;53.614;9.882;2023-08-06T10:48:41;100278.63;;;21.43;71.60
21520;BME280;10921;53.614;9.882;2023-08-06T10:51:09;100315.81;;;21.61;70.04
21520;BME280;10921;53.614;9.882;2023-08-06T10:53:37;100289.94;;;21.40;71.38
21520;BME280;10921;53.614;9.882;2023-08-06T10:56:14;100315.81;;;21.61;70.29
21520;BME280;10921;53.614;9.882;2023-08-06T10:58:46;100313.16;;;21.54;70.57
21520;BME280;10921;53.614;9.882;2023-08-06T11:01:13;100311.28;;;21.55;69.84
21520;BME280;10921;53.614;9.882;2023-08-06T11:03:40;100309.16;;;21.57;71.43
21520;BME280;10921;53.614;9.882;2023-08-06T11:06:08;100295.16;;;21.41;70.73
21520;BME280;10921;53.614;9.882;2023-08-06T11:08:37;100316.72;;;21.55;71.08
21520;BME280;10921;53.614;9.882;2023-08-06T11:11:11;100299.00;;;21.52;71.74
21520;BME280;10921;53.614;9.882;2023-08-06T11:13:44;100305.63;;;21.56;72.55
21520;BME280;10921;53.614;9.882;2023-08-06T11:16:17;100300.19;;;21.56;73.06
21520;BME280;10921;53.614;9.882;2023-08-06T11:18:45;100298.09;;;21.58;73.63
21520;BME280;10921;53.614;9.882;2023-08-06T11:21:11;100281.97;;;21.45;72.26
21520;BME280;10921;53.614;9.882;2023-08-06T11:23:38;100303.00;;;21.68;73.66
21520;BME280;10921;53.614;9.882;2023-08-06T11:26:07;100247.81;;;21.37;71.60
21520;BME280;10921;53.614;9.882;2023-08-06T11:28:34;100262.34;;;21.43;71.50
21520;BME280;10921;53.614;9.882;2023-08-06T11:31:00;100290.09;;;21.45;71.83
21520;BME280;10921;53.614;9.882;2023-08-06T11:33:28;100282.63;;;21.40;73.31
21520;BME280;10921;53.614;9.882;2023-08-06T11:35:56;100296.19;;;21.40;72.18
21520;BME280;10921;53.614;9.882;2023-08-06T11:38:25;100272.84;;;21.21;72.68
21520;BME280;10921;53.614;9.882;2023-08-06T11:40:53;100292.06;;;21.20;73.52
21520;BME280;10921;53.614;9.882;2023-08-06T11:43:20;100301.47;;;21.11;72.78
21520;BME280;10921;53.614;9.882;2023-08-06T11:45:50;100287.38;;;21.02;73.88
21520;BME280;10921;53.614;9.882;2023-08-06T11:48:17;100302.03;;;20.94;74.26
21520;BME280;10921;53.614;9.882;2023-08-06T11:50:44;100296.91;;;20.86;75.08
21520;BME280;10921;53.614;9.882;2023-08-06T11:53:14;100268.16;;;20.60;75.63
21520;BME280;10921;53.614;9.882;2023-08-06T11:55:41;100298.00;;;20.79;75.37
21520;BME280;10921;53.614;9.882;2023-08-06T11:58:09;100291.59;;;20.73;75.03
21520;BME280;10921;53.614;9.882;2023-08-06T12:00:38;100303.28;;;20.74;75.43
21520;BME280;10921;53.614;9.882;2023-08-06T12:03:05;100282.91;;;20.64;75.48
21520;BME280;10921;53.614;9.882;2023-08-06T12:05:32;100289.13;;;20.71;77.15
21520;BME280;10921;53.614;9.882;2023-08-06T12:08:04;100292.44;;;20.74;76.98
21520;BME280;10921;53.614;9.882;2023-08-06T12:10:32;100281.38;;;20.75;76.27
21520;BME280;10921;53.614;9.882;2023-08-06T12:12:59;100284.91;;;20.76;76.42
21520;BME280;10921;53.614;9.882;2023-08-06T12:15:26;100293.31;;;20.67;76.36
21520;BME280;10921;53.614;9.882;2023-08-06T12:17:53;100276.19;;;20.74;77.71
21520;BME280;10921;53.614;9.882;2023-08-06T12:20:19;100273.06;;;20.70;76.90
21520;BME280;10921;53.614;9.882;2023-08-06T12:22:46;100270.75;;;20.74;77.67
21520;BME280;10921;53.614;9.882;2023-08-06T12:25:13;100271.81;;;20.73;78.31
21520;BME280;10921;53.614;9.882;2023-08-06T12:27:43;100279.94;;;20.73;78.25
21520;BME280;10921;53.614;9.882;2023-08-06T12:30:11;100275.56;;;20.71;77.06
21520;BME280;10921;53.614;9.882;2023-08-06T12:32:38;100257.47;;;20.65;78.41
21520;BME280;10921;53.614;9.882;2023-08-06T12:35:06;100269.31;;;20.71;78.07
21520;BME280;10921;53.614;9.882;2023-08-06T12:37:34;100266.63;;;20.64;77.45
21520;BME280;10921;53.614;9.882;2023-08-06T12:40:01;100280.25;;;20.83;78.32
21520;BME280;10921;53.614;9.882;2023-08-06T12:42:47;100276.81;;;20.94;78.80
21520;BME280;10921;53.614;9.882;2023-08-06T12:45:15;100262.75;;;21.03;76.99
21520;BME280;10921;53.614;9.882;2023-08-06T12:47:42;100261.19;;;21.14;77.33
21520;BME280;10921;53.614;9.882;2023-08-06T12:50:08;100216.44;;;21.05;76.16
21520;BME280;10921;53.614;9.882;2023-08-06T12:52:35;100258.34;;;21.46;75.33
21520;BME280;10921;53.614;9.882;2023-08-06T12:55:02;100256.91;;;21.61;74.30
21520;BME280;10921;53.614;9.882;2023-08-06T12:57:28;100261.50;;;21.79;74.25
21520;BME280;10921;53.614;9.882;2023-08-06T13:00:15;100219.56;;;21.75;72.48
21520;BME280;10921;53.614;9.882;2023-08-06T13:02:42;100259.53;;;22.16;73.43